sensor_id;sensor_type;location;lat;lon;timestamp;pressure;altitude;pressure_sealevel;temperature;humidity
62438;BME280;48481;0.000;0.000;2023-05-25T00:02:09;102116.81;;;10.93;76.79
62438;BME280;48481;0.000;0.000;2023-05-25T00:04:39;102102.88;;;10.91;76.82
62438;BME280;48481;0.000;0.000;2023-05-25T00:07:05;102108.28;;;10.79;77.35
62438;BME280;48481;0.000;0.000;2023-05-25T00:09:30;102113.81;;;10.57;78.34
62438;BME280;48481;0.000;0.000;2023-05-25T00:11:55;102113.97;;;10.65;77.65
62438;BME280;48481;0.000;0.000;2023-05-25T00:14:23;102119.94;;;10.58;77.95
62438;BME280;48481;0.000;0.000;2023-05-25T00:16:49;102114.91;;;10.55;78.26
62438;BME280;48481;0.000;0.000;2023-05-25T00:19:15;102123.13;;;10.52;78.64
62438;BME280;48481;0.000;0.000;2023-05-25T00:21:43;102122.72;;;10.56;78.49
62438;BME280;48481;0.000;0.000;2023-05-25T00:24:10;102124.25;;;10.59;78.07
62438;BME280;48481;0.000;0.000;2023-05-25T00:26:35;102123.59;;;10.66;78.04
62438;BME280;48481;0.000;0.000;2023-05-25T00:29:02;102126.38;;;10.65;78.09
62438;BME280;48481;0.000;0.000;2023-05-25T00:31:28;102122.31;;;10.61;78.64
62438;BME280;48481;0.000;0.000;2023-05-25T00:33:54;102123.75;;;10.74;78.35
62438;BME280;48481;0.000;0.000;2023-05-25T00:36:19;102118.84;;;10.70;78.45
62438;BME280;48481;0.000;0.000;2023-05-25T00:38:44;102124.56;;;10.65;78.65
62438;BME280;48481;0.000;0.000;2023-05-25T00:41:11;102125.56;;;10.74;78.26
62438;BME280;48481;0.000;0.000;2023-05-25T00:43:36;102114.81;;;10.66;78.71
62438;BME280;48481;0.000;0.000;2023-05-25T00:46:02;102120.19;;;10.55;78.97
62438;BME280;48481;0.000;0.000;2023-05-25T00:48:27;102123.28;;;10.60;79.14
62438;BME280;48481;0.000;0.000;2023-05-25T00:50:54;102125.44;;;10.85;78.28
62438;BME280;48481;0.000;0.000;2023-05-25T00:53:24;102116.81;;;10.93;78.11
62438;BME280;48481;0.000;0.000;2023-05-25T00:55:56;102118.69;;;10.62;79.06
62438;BME280;48481;0.000;0.000;2023-05-25T00:58:26;102113.50;;;10.51;79.69
62438;BME280;48481;0.000;0.000;2023-05-25T01:00:53;102116.00;;;10.52;79.83
62438;BME280;48481;0.000;0.000;2023-05-25T01:03:22;102115.59;;;10.57;79.46
62438;BME280;48481;0.000;0.000;2023-05-25T01:05:53;102113.50;;;10.51;79.97
62438;BME280;48481;0.000;0.000;2023-05-25T01:08:19;102113.50;;;10.51;80.38
62438;BME280;48481;0.000;0.000;2023-05-25T01:10:48;102118.00;;;10.60;79.38
62438;BME280;48481;0.000;0.000;2023-05-25T01:13:16;102113.69;;;10.38;80.23
62438;BME280;48481;0.000;0.000;2023-05-25T01:15:41;102107.56;;;10.37;80.52
62438;BME280;48481;0.000;0.000;2023-05-25T01:18:07;102116.81;;;10.43;80.19
62438;BME280;48481;0.000;0.000;2023-05-25T01:20:34;102122.72;;;10.35;80.46
62438;BME280;48481;0.000;0.000;2023-05-25T01:23:07;102121.25;;;10.42;80.40
62438;BME280;48481;0.000;0.000;2023-05-25T01:25:39;102121.69;;;10.47;79.78
62438;BME280;48481;0.000;0.000;2023-05-25T01:28:10;102125.72;;;10.42;79.87
62438;BME280;48481;0.000;0.000;2023-05-25T01:30:40;102123.06;;;10.42;80.03
62438;BME280;48481;0.000;0.000;2023-05-25T01:33:07;102123.56;;;10.57;79.68
62438;BME280;48481;0.000;0.000;2023-05-25T01:35:35;102132.28;;;10.27;80.29
62438;BME280;48481;0.000;0.000;2023-05-25T01:38:01;102137.78;;;10.14;81.33
62438;BME280;48481;0.000;0.000;2023-05-25T01:40:26;102137.78;;;10.14;81.17
62438;BME280;48481;0.000;0.000;2023-05-25T01:42:52;102136.53;;;10.18;80.84
62438;BME280;48481;0.000;0.000;2023-05-25T01:45:18;102124.75;;;10.22;80.64
62438;BME280;48481;0.000;0.000;2023-05-25T01:50:50;102122.56;;;10.27;80.30
62438;BME280;48481;0.000;0.000;2023-05-25T01:53:22;102121.25;;;10.42;79.88
62438;BME280;48481;0.000;0.000;2023-05-25T01:55:59;102123.84;;;10.33;80.27
62438;BME280;48481;0.000;0.000;2023-05-25T01:58:27;102119.66;;;10.30;80.23
62438;BME280;48481;0.000;0.000;2023-05-25T02:00:56;102119.38;;;10.12;80.85
62438;BME280;48481;0.000;0.000;2023-05-25T02:03:22;102114.09;;;10.12;81.25
62438;BME280;48481;0.000;0.000;2023-05-25T02:05:48;102116.13;;;10.20;80.74
62438;BME280;48481;0.000;0.000;2023-05-25T02:08:13;102127.31;;;10.12;80.83
62438;BME280;48481;0.000;0.000;2023-05-25T02:10:38;102124.22;;;10.07;81.33
62438;BME280;48481;0.000;0.000;2023-05-25T02:13:04;102122.16;;;10.11;81.06
62438;BME280;48481;0.000;0.000;2023-05-25T02:15:31;102116.59;;;10.14;81.30
62438;BME280;48481;0.000;0.000;2023-05-25T02:17:56;102117.53;;;10.03;81.43
62438;BME280;48481;0.000;0.000;2023-05-25T02:20:24;102121.44;;;10.09;81.21
62438;BME280;48481;0.000;0.000;2023-05-25T02:22:49;102121.75;;;10.15;81.09
62438;BME280;48481;0.000;0.000;2023-05-25T02:25:15;102121.91;;;10.14;81.17
62438;BME280;48481;0.000;0.000;2023-05-25T02:27:40;102126.03;;;10.07;81.10
62438;BME280;48481;0.000;0.000;2023-05-25T02:30:06;102126.75;;;10.09;81.36
62438;BME280;48481;0.000;0.000;2023-05-25T02:32:31;102124.03;;;9.99;81.76
62438;BME280;48481;0.000;0.000;2023-05-25T02:34:58;102123.66;;;10.04;81.38
62438;BME280;48481;0.000;0.000;2023-05-25T02:37:23;102128.28;;;10.11;81.33
62438;BME280;48481;0.000;0.000;2023-05-25T02:39:48;102126.88;;;10.07;81.36
62438;BME280;48481;0.000;0.000;2023-05-25T02:42:14;102125.25;;;9.95;81.64
62438;BME280;48481;0.000;0.000;2023-05-25T02:44:39;102125.13;;;9.97;81.74
62438;BME280;48481;0.000;0.000;2023-05-25T02:47:05;102121.72;;;9.85;82.60
62438;BME280;48481;0.000;0.000;2023-05-25T02:49:31;102126.16;;;9.84;82.54
62438;BME280;48481;0.000;0.000;2023-05-25T02:51:58;102125.66;;;9.91;82.32
62438;BME280;48481;0.000;0.000;2023-05-25T02:54:24;102122.03;;;9.92;82.50
62438;BME280;48481;0.000;0.000;2023-05-25T02:56:49;102128.44;;;9.89;82.37
62438;BME280;48481;0.000;0.000;2023-05-25T02:59:15;102133.72;;;9.89;82.30
62438;BME280;48481;0.000;0.000;2023-05-25T03:01:40;102133.41;;;9.71;83.20
62438;BME280;48481;0.000;0.000;2023-05-25T03:04:06;102139.91;;;9.78;83.25
62438;BME280;48481;0.000;0.000;2023-05-25T03:06:31;102141.78;;;9.88;82.68
62438;BME280;48481;0.000;0.000;2023-05-25T03:08:57;102146.88;;;9.79;82.90
62438;BME280;48481;0.000;0.000;2023-05-25T03:11:22;102151.19;;;9.80;83.05
62438;BME280;48481;0.000;0.000;2023-05-25T03:13:49;102143.53;;;9.98;82.46
62438;BME280;48481;0.000;0.000;2023-05-25T03:16:14;102155.13;;;9.86;82.88
62438;BME280;48481;0.000;0.000;2023-05-25T03:18:40;102152.41;;;9.97;82.48
62438;BME280;48481;0.000;0.000;2023-05-25T03:21:05;102156.72;;;9.77;83.64
62438;BME280;48481;0.000;0.000;2023-05-25T03:23:30;102155.97;;;9.87;83.47
62438;BME280;48481;0.000;0.000;2023-05-25T03:25:56;102155.97;;;9.87;83.22
62438;BME280;48481;0.000;0.000;2023-05-25T03:28:22;102155.63;;;9.80;83.59
62438;BME280;48481;0.000;0.000;2023-05-25T03:30:47;102159.00;;;9.82;83.64
62438;BME280;48481;0.000;0.000;2023-05-25T03:33:13;102167.53;;;9.74;83.90
62438;BME280;48481;0.000;0.000;2023-05-25T03:35:38;102159.81;;;9.82;83.23
62438;BME280;48481;0.000;0.000;2023-05-25T03:38:04;102168.59;;;9.83;83.56
62438;BME280;48481;0.000;0.000;2023-05-25T03:40:29;102166.59;;;9.75;83.71
62438;BME280;48481;0.000;0.000;2023-05-25T03:42:55;102166.53;;;9.87;82.99
62438;BME280;48481;0.000;0.000;2023-05-25T03:45:20;102164.88;;;9.74;83.46
62438;BME280;48481;0.000;0.000;2023-05-25T03:47:45;102163.31;;;9.83;83.42
62438;BME280;48481;0.000;0.000;2023-05-25T03:50:12;102165.56;;;9.88;83.18
62438;BME280;48481;0.000;0.000;2023-05-25T03:52:37;102166.03;;;9.93;82.74
62438;BME280;48481;0.000;0.000;2023-05-25T03:55:03;102174.03;;;10.02;82.33
62438;BME280;48481;0.000;0.000;2023-05-25T03:57:29;102175.69;;;9.82;83.49
62438;BME280;48481;0.000;0.000;2023-05-25T03:59:55;102176.66;;;9.81;83.44
62438;BME280;48481;0.000;0.000;2023-05-25T04:02:20;102186.00;;;9.85;83.12
62438;BME280;48481;0.000;0.000;2023-05-25T04:04:46;102189.88;;;9.81;83.18
62438;BME280;48481;0.000;0.000;2023-05-25T04:07:14;102188.69;;;9.74;83.42
62438;BME280;48481;0.000;0.000;2023-05-25T04:09:40;102197.09;;;9.79;83.31
62438;BME280;48481;0.000;0.000;2023-05-25T04:12:05;102189.03;;;9.81;82.50
62438;BME280;48481;0.000;0.000;2023-05-25T04:14:31;102204.41;;;9.87;82.41
62438;BME280;48481;0.000;0.000;2023-05-25T04:16:56;102208.78;;;9.66;82.71
62438;BME280;48481;0.000;0.000;2023-05-25T04:19:21;102205.16;;;9.24;83.76
62438;BME280;48481;0.000;0.000;2023-05-25T04:21:47;102204.44;;;8.88;85.93
62438;BME280;48481;0.000;0.000;2023-05-25T04:24:12;102208.88;;;9.10;85.70
62438;BME280;48481;0.000;0.000;2023-05-25T04:26:37;102209.38;;;9.15;84.78
62438;BME280;48481;0.000;0.000;2023-05-25T04:29:03;102209.72;;;9.21;84.21
62438;BME280;48481;0.000;0.000;2023-05-25T04:31:29;102210.69;;;8.87;85.12
62438;BME280;48481;0.000;0.000;2023-05-25T04:33:55;102212.13;;;8.80;85.38
62438;BME280;48481;0.000;0.000;2023-05-25T04:36:21;102210.09;;;9.17;83.80
62438;BME280;48481;0.000;0.000;2023-05-25T04:38:47;102200.88;;;9.11;83.92
62438;BME280;48481;0.000;0.000;2023-05-25T04:41:15;102199.53;;;9.17;83.78
62438;BME280;48481;0.000;0.000;2023-05-25T04:43:40;102209.97;;;9.30;83.28
62438;BME280;48481;0.000;0.000;2023-05-25T04:46:09;102215.50;;;9.15;83.93
62438;BME280;48481;0.000;0.000;2023-05-25T04:48:35;102214.78;;;9.13;83.92
62438;BME280;48481;0.000;0.000;2023-05-25T04:51:02;102220.94;;;9.57;nan
62438;BME280;48481;0.000;0.000;2023-05-25T04:53:29;102224.13;;;9.72;81.88
62438;BME280;48481;0.000;0.000;2023-05-25T04:55:54;102219.97;;;9.58;82.10
62438;BME280;48481;0.000;0.000;2023-05-25T04:58:21;102216.09;;;9.73;81.83
62438;BME280;48481;0.000;0.000;2023-05-25T05:00:46;102222.53;;;9.92;81.19
62438;BME280;48481;0.000;0.000;2023-05-25T05:03:12;102215.00;;;10.08;79.77
62438;BME280;48481;0.000;0.000;2023-05-25T05:05:37;102222.03;;;9.98;80.07
62438;BME280;48481;0.000;0.000;2023-05-25T05:08:03;102216.72;;;9.98;80.37
62438;BME280;48481;0.000;0.000;2023-05-25T05:10:28;102224.03;;;9.62;81.66
62438;BME280;48481;0.000;0.000;2023-05-25T05:12:54;102219.41;;;9.87;81.27
62438;BME280;48481;0.000;0.000;2023-05-25T05:15:19;102212.41;;;10.17;79.54
62438;BME280;48481;0.000;0.000;2023-05-25T05:17:45;102223.22;;;10.26;79.60
62438;BME280;48481;0.000;0.000;2023-05-25T05:20:11;102224.16;;;10.57;78.16
62438;BME280;48481;0.000;0.000;2023-05-25T05:22:36;102226.41;;;10.61;77.71
62438;BME280;48481;0.000;0.000;2023-05-25T05:25:02;102233.75;;;10.58;77.79
62438;BME280;48481;0.000;0.000;2023-05-25T05:27:27;102233.91;;;10.56;77.32
62438;BME280;48481;0.000;0.000;2023-05-25T05:29:53;102240.13;;;10.76;76.53
62438;BME280;48481;0.000;0.000;2023-05-25T05:32:18;102236.16;;;10.91;75.97
62438;BME280;48481;0.000;0.000;2023-05-25T05:34:43;102233.38;;;10.93;76.05
62438;BME280;48481;0.000;0.000;2023-05-25T05:37:09;102234.66;;;10.68;76.97
62438;BME280;48481;0.000;0.000;2023-05-25T05:39:34;102236.72;;;10.64;77.12
62438;BME280;48481;0.000;0.000;2023-05-25T05:41:59;102242.44;;;10.90;75.59
62438;BME280;48481;0.000;0.000;2023-05-25T05:44:25;102246.66;;;11.02;75.57
62438;BME280;48481;0.000;0.000;2023-05-25T05:46:51;102236.69;;;11.16;74.72
62438;BME280;48481;0.000;0.000;2023-05-25T05:49:16;102249.50;;;11.10;74.38
62438;BME280;48481;0.000;0.000;2023-05-25T05:51:41;102254.34;;;11.36;73.83
62438;BME280;48481;0.000;0.000;2023-05-25T05:54:07;102244.22;;;11.10;74.31
62438;BME280;48481;0.000;0.000;2023-05-25T05:56:32;102247.03;;;11.19;73.67
62438;BME280;48481;0.000;0.000;2023-05-25T05:58:58;102247.28;;;11.16;73.87
62438;BME280;48481;0.000;0.000;2023-05-25T06:01:23;102242.88;;;11.35;72.56
62438;BME280;48481;0.000;0.000;2023-05-25T06:03:49;102242.09;;;11.54;72.10
62438;BME280;48481;0.000;0.000;2023-05-25T06:06:16;102244.31;;;11.59;71.65
62438;BME280;48481;0.000;0.000;2023-05-25T06:08:42;102250.41;;;11.30;71.98
62438;BME280;48481;0.000;0.000;2023-05-25T06:11:08;102244.31;;;11.49;71.73
62438;BME280;48481;0.000;0.000;2023-05-25T06:13:33;102254.28;;;11.17;72.77
62438;BME280;48481;0.000;0.000;2023-05-25T06:15:58;102246.94;;;11.80;70.56
62438;BME280;48481;0.000;0.000;2023-05-25T06:18:24;102253.13;;;11.59;70.59
62438;BME280;48481;0.000;0.000;2023-05-25T06:20:49;102253.28;;;11.67;69.81
62438;BME280;48481;0.000;0.000;2023-05-25T06:23:14;102251.91;;;11.73;69.65
62438;BME280;48481;0.000;0.000;2023-05-25T06:25:43;102251.53;;;11.78;69.83
62438;BME280;48481;0.000;0.000;2023-05-25T06:28:08;102250.44;;;11.90;68.90
62438;BME280;48481;0.000;0.000;2023-05-25T06:30:34;102253.06;;;11.90;68.01
62438;BME280;48481;0.000;0.000;2023-05-25T06:32:59;102253.78;;;11.92;67.15
62438;BME280;48481;0.000;0.000;2023-05-25T06:35:24;102254.47;;;12.03;67.08
62438;BME280;48481;0.000;0.000;2023-05-25T06:37:50;102255.31;;;11.85;67.15
62438;BME280;48481;0.000;0.000;2023-05-25T06:40:15;102258.25;;;12.01;66.41
62438;BME280;48481;0.000;0.000;2023-05-25T06:42:41;102264.81;;;11.97;66.78
62438;BME280;48481;0.000;0.000;2023-05-25T06:45:07;102264.78;;;11.78;67.38
62438;BME280;48481;0.000;0.000;2023-05-25T06:47:33;102272.22;;;11.53;67.82
62438;BME280;48481;0.000;0.000;2023-05-25T06:49:59;102272.78;;;11.57;68.73
62438;BME280;48481;0.000;0.000;2023-05-25T06:52:24;102267.88;;;12.02;67.40
62438;BME280;48481;0.000;0.000;2023-05-25T06:54:54;102261.72;;;12.50;66.02
62438;BME280;48481;0.000;0.000;2023-05-25T06:57:19;102261.41;;;12.62;64.48
62438;BME280;48481;0.000;0.000;2023-05-25T06:59:45;102260.91;;;12.86;63.84
62438;BME280;48481;0.000;0.000;2023-05-25T07:02:10;102262.94;;;13.12;63.75
62438;BME280;48481;0.000;0.000;2023-05-25T07:04:36;102274.13;;;13.25;63.49
62438;BME280;48481;0.000;0.000;2023-05-25T07:07:02;102268.59;;;13.36;61.99
62438;BME280;48481;0.000;0.000;2023-05-25T07:09:27;102272.53;;;13.32;61.99
62438;BME280;48481;0.000;0.000;2023-05-25T07:11:53;102263.25;;;13.09;61.77
62438;BME280;48481;0.000;0.000;2023-05-25T07:14:18;102265.41;;;13.32;61.52
62438;BME280;48481;0.000;0.000;2023-05-25T07:16:43;102273.72;;;13.20;62.13
62438;BME280;48481;0.000;0.000;2023-05-25T07:19:12;102266.59;;;13.11;62.21
62438;BME280;48481;0.000;0.000;2023-05-25T07:21:37;102269.28;;;12.91;62.92
62438;BME280;48481;0.000;0.000;2023-05-25T07:24:03;102263.97;;;12.91;62.37
62438;BME280;48481;0.000;0.000;2023-05-25T07:26:30;102277.25;;;13.01;62.22
62438;BME280;48481;0.000;0.000;2023-05-25T07:28:56;102267.41;;;13.21;60.56
62438;BME280;48481;0.000;0.000;2023-05-25T07:31:21;102267.31;;;13.40;61.23
62438;BME280;48481;0.000;0.000;2023-05-25T07:33:47;102267.03;;;13.43;60.15
62438;BME280;48481;0.000;0.000;2023-05-25T07:36:12;102265.53;;;13.31;60.66
62438;BME280;48481;0.000;0.000;2023-05-25T07:38:37;102273.16;;;12.60;61.79
62438;BME280;48481;0.000;0.000;2023-05-25T07:41:03;102253.88;;;13.05;60.60
62438;BME280;48481;0.000;0.000;2023-05-25T07:43:28;102267.59;;;13.37;59.20
62438;BME280;48481;0.000;0.000;2023-05-25T07:45:53;102268.03;;;13.60;57.76
62438;BME280;48481;0.000;0.000;2023-05-25T07:48:19;102273.06;;;13.63;58.34
62438;BME280;48481;0.000;0.000;2023-05-25T07:50:45;102285.09;;;13.67;58.62
62438;BME280;48481;0.000;0.000;2023-05-25T07:53:10;102284.59;;;13.99;58.07
62438;BME280;48481;0.000;0.000;2023-05-25T07:55:35;102290.75;;;14.00;58.29
62438;BME280;48481;0.000;0.000;2023-05-25T07:58:01;102286.84;;;13.76;57.21
62438;BME280;48481;0.000;0.000;2023-05-25T08:00:26;102291.22;;;13.95;56.72
62438;BME280;48481;0.000;0.000;2023-05-25T08:02:51;102284.91;;;14.14;56.13
62438;BME280;48481;0.000;0.000;2023-05-25T08:05:17;102286.41;;;13.99;56.94
62438;BME280;48481;0.000;0.000;2023-05-25T08:07:43;102290.91;;;14.16;57.11
62438;BME280;48481;0.000;0.000;2023-05-25T08:10:09;102292.69;;;14.43;56.88
62438;BME280;48481;0.000;0.000;2023-05-25T08:12:34;102290.44;;;14.56;56.50
62438;BME280;48481;0.000;0.000;2023-05-25T08:15:00;102298.22;;;14.32;56.08
62438;BME280;48481;0.000;0.000;2023-05-25T08:17:25;102300.78;;;14.23;55.84
62438;BME280;48481;0.000;0.000;2023-05-25T08:19:51;102304.59;;;14.39;55.81
62438;BME280;48481;0.000;0.000;2023-05-25T08:22:16;102299.81;;;14.60;55.90
62438;BME280;48481;0.000;0.000;2023-05-25T08:24:41;102301.91;;;14.74;54.34
62438;BME280;48481;0.000;0.000;2023-05-25T08:27:07;102299.13;;;14.58;52.86
62438;BME280;48481;0.000;0.000;2023-05-25T08:29:32;102297.63;;;14.81;53.49
62438;BME280;48481;0.000;0.000;2023-05-25T08:31:58;102299.72;;;14.96;52.54
62438;BME280;48481;0.000;0.000;2023-05-25T08:34:23;102296.13;;;15.05;52.84
62438;BME280;48481;0.000;0.000;2023-05-25T08:36:48;102291.09;;;15.36;51.84
62438;BME280;48481;0.000;0.000;2023-05-25T08:39:14;102296.53;;;15.26;52.54
62438;BME280;48481;0.000;0.000;2023-05-25T08:41:43;102292.28;;;15.07;53.15
62438;BME280;48481;0.000;0.000;2023-05-25T08:44:09;102300.00;;;14.93;53.21
62438;BME280;48481;0.000;0.000;2023-05-25T08:46:35;102300.53;;;15.22;51.88
62438;BME280;48481;0.000;0.000;2023-05-25T08:49:20;102299.50;;;14.89;52.55
62438;BME280;48481;0.000;0.000;2023-05-25T08:51:50;102302.09;;;14.99;53.97
62438;BME280;48481;0.000;0.000;2023-05-25T08:54:21;102303.16;;;15.14;53.22
62438;BME280;48481;0.000;0.000;2023-05-25T08:56:50;102300.91;;;14.75;51.39
62438;BME280;48481;0.000;0.000;2023-05-25T08:59:27;102314.25;;;15.01;50.76
62438;BME280;48481;0.000;0.000;2023-05-25T09:02:01;102304.97;;;15.47;50.87
62438;BME280;48481;0.000;0.000;2023-05-25T09:04:32;102304.63;;;15.76;50.59
62438;BME280;48481;0.000;0.000;2023-05-25T09:06:58;102311.13;;;15.74;50.73
62438;BME280;48481;0.000;0.000;2023-05-25T09:09:24;102313.84;;;16.06;50.18
62438;BME280;48481;0.000;0.000;2023-05-25T09:11:50;102316.91;;;16.28;49.64
62438;BME280;48481;0.000;0.000;2023-05-25T09:14:16;102325.22;;;16.16;50.32
62438;BME280;48481;0.000;0.000;2023-05-25T09:16:42;102327.38;;;16.21;48.97
62438;BME280;48481;0.000;0.000;2023-05-25T09:19:09;102318.22;;;16.24;48.96
62438;BME280;48481;0.000;0.000;2023-05-25T09:21:34;102326.38;;;16.14;49.17
62438;BME280;48481;0.000;0.000;2023-05-25T09:24:01;102323.31;;;15.84;50.84
62438;BME280;48481;0.000;0.000;2023-05-25T09:26:26;102325.00;;;15.94;50.94
62438;BME280;48481;0.000;0.000;2023-05-25T09:28:52;102331.16;;;15.86;50.23
62438;BME280;48481;0.000;0.000;2023-05-25T09:31:17;102330.78;;;15.39;50.15
62438;BME280;48481;0.000;0.000;2023-05-25T09:33:44;102322.50;;;15.92;49.00
62438;BME280;48481;0.000;0.000;2023-05-25T09:36:11;102330.59;;;16.33;48.21
62438;BME280;48481;0.000;0.000;2023-05-25T09:38:39;102325.09;;;16.51;46.99
62438;BME280;48481;0.000;0.000;2023-05-25T09:41:05;102335.41;;;16.21;47.79
62438;BME280;48481;0.000;0.000;2023-05-25T09:43:31;102321.09;;;16.38;47.43
62438;BME280;48481;0.000;0.000;2023-05-25T09:45:56;102333.28;;;16.33;47.28
62438;BME280;48481;0.000;0.000;2023-05-25T09:48:22;102328.38;;;16.04;47.31
62438;BME280;48481;0.000;0.000;2023-05-25T09:50:48;102334.53;;;16.04;48.27
62438;BME280;48481;0.000;0.000;2023-05-25T09:53:13;102330.91;;;16.22;49.26
62438;BME280;48481;0.000;0.000;2023-05-25T09:55:39;102326.56;;;16.21;49.34
62438;BME280;48481;0.000;0.000;2023-05-25T09:58:04;102323.25;;;16.35;48.62
62438;BME280;48481;0.000;0.000;2023-05-25T10:00:30;102325.91;;;16.51;47.52
62438;BME280;48481;0.000;0.000;2023-05-25T10:02:56;102320.75;;;16.74;46.92
62438;BME280;48481;0.000;0.000;2023-05-25T10:05:21;102319.59;;;16.93;46.96
62438;BME280;48481;0.000;0.000;2023-05-25T10:07:49;102329.94;;;16.63;46.78
62438;BME280;48481;0.000;0.000;2023-05-25T10:10:15;102320.22;;;16.87;46.88
62438;BME280;48481;0.000;0.000;2023-05-25T10:12:44;102332.28;;;16.66;47.95
62438;BME280;48481;0.000;0.000;2023-05-25T10:15:11;102330.44;;;16.34;47.72
62438;BME280;48481;0.000;0.000;2023-05-25T10:17:52;102330.72;;;16.23;48.01
62438;BME280;48481;0.000;0.000;2023-05-25T10:20:17;102330.88;;;16.05;48.88
62438;BME280;48481;0.000;0.000;2023-05-25T10:22:51;102334.59;;;16.37;48.25
62438;BME280;48481;0.000;0.000;2023-05-25T10:27:59;102344.13;;;16.80;46.72
62438;BME280;48481;0.000;0.000;2023-05-25T10:30:26;102333.19;;;16.00;47.34
62438;BME280;48481;0.000;0.000;2023-05-25T10:32:53;102340.53;;;15.90;47.65
62438;BME280;48481;0.000;0.000;2023-05-25T10:35:20;102343.41;;;16.13;46.27
62438;BME280;48481;0.000;0.000;2023-05-25T10:37:46;102347.13;;;16.36;46.44
62438;BME280;48481;0.000;0.000;2023-05-25T10:40:12;102336.94;;;16.64;47.58
62438;BME280;48481;0.000;0.000;2023-05-25T10:42:38;102342.97;;;16.83;47.91
62438;BME280;48481;0.000;0.000;2023-05-25T10:45:06;102339.28;;;16.59;48.42
62438;BME280;48481;0.000;0.000;2023-05-25T10:47:34;102343.13;;;16.97;47.54
62438;BME280;48481;0.000;0.000;2023-05-25T10:50:01;102344.91;;;17.21;47.48
62438;BME280;48481;0.000;0.000;2023-05-25T10:52:28;102341.44;;;17.04;47.75
62438;BME280;48481;0.000;0.000;2023-05-25T10:54:59;102328.59;;;17.00;48.11
62438;BME280;48481;0.000;0.000;2023-05-25T10:57:31;102338.09;;;17.10;48.65
62438;BME280;48481;0.000;0.000;2023-05-25T11:00:05;102352.16;;;16.72;47.05
62438;BME280;48481;0.000;0.000;2023-05-25T11:02:49;102334.59;;;16.45;47.85
62438;BME280;48481;0.000;0.000;2023-05-25T11:07:54;102334.59;;;17.02;46.96
62438;BME280;48481;0.000;0.000;2023-05-25T11:13:34;102336.63;;;16.84;47.94
62438;BME280;48481;0.000;0.000;2023-05-25T11:18:49;102326.91;;;16.83;49.01
62438;BME280;48481;0.000;0.000;2023-05-25T11:24:01;102325.25;;;16.57;48.40
62438;BME280;48481;0.000;0.000;2023-05-25T11:26:29;102326.75;;;16.84;48.07
62438;BME280;48481;0.000;0.000;2023-05-25T11:28:56;102319.50;;;17.17;47.83
62438;BME280;48481;0.000;0.000;2023-05-25T11:33:54;102315.34;;;17.62;46.26
62438;BME280;48481;0.000;0.000;2023-05-25T11:36:22;102316.50;;;17.20;46.53
62438;BME280;48481;0.000;0.000;2023-05-25T11:38:47;102307.56;;;17.36;47.43
62438;BME280;48481;0.000;0.000;2023-05-25T11:41:17;102308.97;;;17.55;45.90
62438;BME280;48481;0.000;0.000;2023-05-25T11:43:50;102314.69;;;17.60;46.13
62438;BME280;48481;0.000;0.000;2023-05-25T11:46:16;102309.59;;;17.34;46.30
62438;BME280;48481;0.000;0.000;2023-05-25T11:48:52;102321.66;;;17.22;46.76
62438;BME280;48481;0.000;0.000;2023-05-25T11:51:19;102310.88;;;17.46;46.26
62438;BME280;48481;0.000;0.000;2023-05-25T11:53:45;102313.19;;;17.49;46.28
62438;BME280;48481;0.000;0.000;2023-05-25T11:56:12;102315.94;;;17.80;45.86
62438;BME280;48481;0.000;0.000;2023-05-25T11:58:38;102303.63;;;17.55;47.11
62438;BME280;48481;0.000;0.000;2023-05-25T12:01:15;102308.16;;;17.54;46.39
62438;BME280;48481;0.000;0.000;2023-05-25T12:03:41;102308.59;;;17.27;47.23
62438;BME280;48481;0.000;0.000;2023-05-25T12:06:07;102306.16;;;17.09;47.79
62438;BME280;48481;0.000;0.000;2023-05-25T12:08:36;102301.78;;;17.16;48.05
62438;BME280;48481;0.000;0.000;2023-05-25T12:11:02;102309.53;;;16.95;48.07
62438;BME280;48481;0.000;0.000;2023-05-25T12:13:28;102299.59;;;17.20;46.66
62438;BME280;48481;0.000;0.000;2023-05-25T12:15:54;102309.81;;;17.55;45.92
62438;BME280;48481;0.000;0.000;2023-05-25T12:18:26;102302.13;;;17.52;46.42
62438;BME280;48481;0.000;0.000;2023-05-25T12:20:52;102299.41;;;17.29;46.86
62438;BME280;48481;0.000;0.000;2023-05-25T12:23:18;102302.28;;;17.67;46.38
62438;BME280;48481;0.000;0.000;2023-05-25T12:25:43;102297.00;;;17.82;46.17
62438;BME280;48481;0.000;0.000;2023-05-25T12:28:12;102294.06;;;17.68;46.30
62438;BME280;48481;0.000;0.000;2023-05-25T12:30:39;102291.88;;;17.72;47.11
62438;BME280;48481;0.000;0.000;2023-05-25T12:33:05;102297.38;;;17.79;47.16
62438;BME280;48481;0.000;0.000;2023-05-25T12:35:44;102300.16;;;17.85;46.56
62438;BME280;48481;0.000;0.000;2023-05-25T12:40:36;102287.13;;;17.82;46.72
62438;BME280;48481;0.000;0.000;2023-05-25T12:43:01;102289.56;;;17.92;46.18
62438;BME280;48481;0.000;0.000;2023-05-25T12:45:26;102278.91;;;18.06;45.67
62438;BME280;48481;0.000;0.000;2023-05-25T12:47:52;102299.09;;;17.94;46.88
62438;BME280;48481;0.000;0.000;2023-05-25T12:50:17;102298.78;;;17.58;46.94
62438;BME280;48481;0.000;0.000;2023-05-25T12:52:45;102292.97;;;17.47;47.31
62438;BME280;48481;0.000;0.000;2023-05-25T12:55:24;102292.06;;;17.62;47.28
62438;BME280;48481;0.000;0.000;2023-05-25T12:58:03;102293.78;;;17.47;47.16
62438;BME280;48481;0.000;0.000;2023-05-25T13:02:58;102275.41;;;17.83;46.83
62438;BME280;48481;0.000;0.000;2023-05-25T13:05:26;102288.50;;;17.78;46.67
62438;BME280;48481;0.000;0.000;2023-05-25T13:07:53;102290.00;;;18.03;46.34
62438;BME280;48481;0.000;0.000;2023-05-25T13:10:19;102283.63;;;17.82;46.67
62438;BME280;48481;0.000;0.000;2023-05-25T13:12:46;102281.13;;;17.80;46.86
62438;BME280;48481;0.000;0.000;2023-05-25T13:15:14;102280.41;;;17.86;47.00
62438;BME280;48481;0.000;0.000;2023-05-25T13:17:43;102276.25;;;17.84;47.39
62438;BME280;48481;0.000;0.000;2023-05-25T13:20:13;102280.53;;;17.62;47.58
62438;BME280;48481;0.000;0.000;2023-05-25T13:22:40;102274.16;;;17.63;48.48
62438;BME280;48481;0.000;0.000;2023-05-25T13:25:06;102270.06;;;17.83;47.32